Time;durP1;ratioP1;P1;durP2;ratioP2;P2;SDS_P1;SDS_P2;PMS_P1;PMS_P2;Temp;Humidity;BMP_temperature;BMP_pressure;BME280_temperature;BME280_humidity;BME280_pressure;Samples;Min_cycle;Max_cycle;Signal;HPM_P1;HPM_P2
2023/04/20 00:01:26;;;;;;;7.53;2.90;;;;;;;;;;5004365;28;20042;-62
2023/04/20 00:03:52;;;;;;;5.40;2.90;;;;;;;;;;5006954;28;20673;-64
2023/04/20 00:06:20;;;;;;;5.88;3.30;;;;;;;;;;5007757;28;20329;-64
2023/04/20 00:08:46;;;;;;;6.05;3.45;;;;;;;;;;5007321;28;20046;-63
2023/04/20 00:11:12;;;;;;;10.90;3.13;;;;;;;;;;5006736;28;20042;-64
2023/04/20 00:13:39;;;;;;;6.72;2.58;;;;;;;;;;5007443;28;20116;-63
2023/04/20 00:16:05;;;;;;;9.63;2.80;;;;;;;;;;5007604;28;20050;-64
2023/04/20 00:18:31;;;;;;;5.72;2.03;;;;;;;;;;5000220;28;20050;-63
2023/04/20 00:20:57;;;;;;;5.25;2.20;;;;;;;;;;5007681;28;20045;-63
2023/04/20 00:23:23;;;;;;;6.75;2.28;;;;;;;;;;5007662;28;20041;-63
2023/04/20 00:25:51;;;;;;;4.15;2.03;;;;;;;;;;5006055;28;20042;-63
2023/04/20 00:28:17;;;;;;;7.57;1.90;;;;;;;;;;5007220;28;20049;-63
2023/04/20 00:30:43;;;;;;;5.13;1.92;;;;;;;;;;5007140;28;20057;-63
2023/04/20 00:33:09;;;;;;;5.43;1.85;;;;;;;;;;5007629;28;20053;-64
2023/04/20 00:35:35;;;;;;;5.93;2.10;;;;;;;;;;5006962;28;20045;-63
2023/04/20 00:38:01;;;;;;;4.00;1.77;;;;;;;;;;5007176;28;20132;-64
2023/04/20 00:40:27;;;;;;;6.60;2.33;;;;;;;;;;5007455;28;20046;-64
2023/04/20 00:42:53;;;;;;;8.65;2.33;;;;;;;;;;5006508;28;20038;-64
2023/04/20 00:45:21;;;;;;;3.80;1.83;;;;;;;;;;5005851;28;20041;-64
2023/04/20 00:47:47;;;;;;;4.75;2.08;;;;;;;;;;5005183;28;20096;-64
2023/04/20 00:50:14;;;;;;;3.10;1.85;;;;;;;;;;5006681;28;20052;-63
2023/04/20 00:52:41;;;;;;;3.80;1.90;;;;;;;;;;5006376;28;20046;-64
2023/04/20 00:55:07;;;;;;;7.07;1.50;;;;;;;;;;5007144;28;20050;-64
2023/04/20 00:57:33;;;;;;;4.15;2.03;;;;;;;;;;5006492;28;20053;-64
2023/04/20 01:00:00;;;;;;;6.75;2.10;;;;;;;;;;5006867;28;20451;-64
2023/04/20 01:02:26;;;;;;;4.22;1.67;;;;;;;;;;5006714;28;20455;-64
2023/04/20 01:04:54;;;;;;;3.45;1.58;;;;;;;;;;5006444;28;20065;-64
2023/04/20 01:07:20;;;;;;;7.70;2.03;;;;;;;;;;5089413;22;20048;-58
2023/04/20 01:09:46;;;;;;;6.18;1.88;;;;;;;;;;5016296;28;20132;-58
2023/04/20 01:12:12;;;;;;;4.20;1.80;;;;;;;;;;5023603;28;20404;-58
2023/04/20 01:14:39;;;;;;;5.90;1.70;;;;;;;;;;5018198;28;20049;-59
2023/04/20 01:17:05;;;;;;;6.03;2.03;;;;;;;;;;5014422;28;20136;-58
2023/04/20 01:19:32;;;;;;;4.60;1.52;;;;;;;;;;5014626;28;20550;-58
2023/04/20 01:21:58;;;;;;;5.40;1.70;;;;;;;;;;5006218;28;20048;-59
2023/04/20 01:24:24;;;;;;;4.63;2.20;;;;;;;;;;5007055;28;20137;-58
2023/04/20 01:26:50;;;;;;;6.68;1.50;;;;;;;;;;5000868;28;20068;-58
2023/04/20 01:29:16;;;;;;;2.70;1.60;;;;;;;;;;5006595;28;20526;-58
2023/04/20 01:31:42;;;;;;;4.35;1.77;;;;;;;;;;5005797;28;20499;-58
2023/04/20 01:34:09;;;;;;;3.78;1.73;;;;;;;;;;5006188;28;20045;-59
2023/04/20 01:36:35;;;;;;;4.00;1.80;;;;;;;;;;4988533;28;20541;-61
2023/04/20 01:39:01;;;;;;;6.53;1.92;;;;;;;;;;5006055;28;20049;-59
2023/04/20 01:41:27;;;;;;;4.82;1.80;;;;;;;;;;5006012;28;20042;-58
2023/04/20 01:43:53;;;;;;;5.95;1.75;;;;;;;;;;5019436;28;20041;-58
2023/04/20 01:46:20;;;;;;;4.30;2.05;;;;;;;;;;5005950;28;20077;-59
2023/04/20 01:48:46;;;;;;;5.90;1.80;;;;;;;;;;4987506;28;20096;-59
2023/04/20 01:51:12;;;;;;;8.43;1.70;;;;;;;;;;5005549;28;20052;-59
2023/04/20 01:53:38;;;;;;;7.95;1.77;;;;;;;;;;5005936;28;20388;-59
2023/04/20 01:56:04;;;;;;;6.13;1.80;;;;;;;;;;5005264;28;20050;-59
2023/04/20 01:58:30;;;;;;;3.22;1.55;;;;;;;;;;5005806;28;20038;-58
2023/04/20 02:00:57;;;;;;;3.78;1.33;;;;;;;;;;5005939;28;20049;-58
2023/04/20 02:03:23;;;;;;;7.18;2.30;;;;;;;;;;4988490;28;20049;-58
2023/04/20 02:05:49;;;;;;;7.88;1.83;;;;;;;;;;5005202;28;20045;-59
2023/04/20 02:08:15;;;;;;;4.18;1.77;;;;;;;;;;5004864;28;20499;-58
2023/04/20 02:10:42;;;;;;;12.48;2.00;;;;;;;;;;5004485;28;20100;-58
2023/04/20 02:13:08;;;;;;;4.93;1.30;;;;;;;;;;4987963;28;20042;-59
2023/04/20 02:15:34;;;;;;;3.40;1.88;;;;;;;;;;5005728;28;20046;-58
2023/04/20 02:18:00;;;;;;;5.10;2.08;;;;;;;;;;5019098;28;20120;-59
2023/04/20 02:20:26;;;;;;;4.80;1.92;;;;;;;;;;4988026;28;20125;-62
2023/04/20 02:22:52;;;;;;;3.60;1.63;;;;;;;;;;5005184;28;20084;-58
2023/04/20 02:25:19;;;;;;;4.95;1.95;;;;;;;;;;5005192;28;20044;-58
2023/04/20 02:27:45;;;;;;;4.65;1.90;;;;;;;;;;5003946;28;20531;-58
2023/04/20 02:30:11;;;;;;;5.80;1.67;;;;;;;;;;5004863;28;20045;-58
2023/04/20 02:32:38;;;;;;;6.70;1.60;;;;;;;;;;5004871;28;20116;-58
2023/04/20 02:35:04;;;;;;;6.35;1.80;;;;;;;;;;5005201;28;20046;-58
2023/04/20 02:37:31;;;;;;;6.60;1.92;;;;;;;;;;5005032;28;20081;-59
2023/04/20 02:39:57;;;;;;;5.47;1.77;;;;;;;;;;5005296;28;20045;-58
2023/04/20 02:42:23;;;;;;;4.05;1.80;;;;;;;;;;5004447;28;20380;-59
2023/04/20 02:44:51;;;;;;;4.30;1.80;;;;;;;;;;5004820;28;20293;-59
2023/04/20 02:47:17;;;;;;;6.32;1.55;;;;;;;;;;5004248;28;20081;-58
2023/04/20 02:49:43;;;;;;;3.70;1.38;;;;;;;;;;5004369;28;20050;-59
2023/04/20 02:52:10;;;;;;;3.10;1.48;;;;;;;;;;5004524;28;20108;-59
2023/04/20 02:54:36;;;;;;;6.13;2.05;;;;;;;;;;4987359;28;20053;-59
2023/04/20 02:57:02;;;;;;;5.28;1.85;;;;;;;;;;5003554;28;20797;-58
2023/04/20 02:59:28;;;;;;;3.63;1.50;;;;;;;;;;5005341;28;20073;-60
2023/04/20 03:01:54;;;;;;;9.13;1.58;;;;;;;;;;5004719;28;20103;-58
2023/04/20 03:04:20;;;;;;;4.78;2.22;;;;;;;;;;5004444;28;20123;-58
2023/04/20 03:06:47;;;;;;;4.05;1.60;;;;;;;;;;5004542;28;20438;-58
2023/04/20 03:09:13;;;;;;;6.63;1.98;;;;;;;;;;5003844;28;20041;-57
2023/04/20 03:11:40;;;;;;;5.25;1.73;;;;;;;;;;5003237;28;20053;-58
2023/04/20 03:14:06;;;;;;;6.93;2.10;;;;;;;;;;5004270;28;20132;-58
2023/04/20 03:16:32;;;;;;;3.45;1.40;;;;;;;;;;5008432;28;20155;-58
2023/04/20 03:18:58;;;;;;;4.47;1.40;;;;;;;;;;5014320;28;20046;-59
2023/04/20 03:21:24;;;;;;;9.77;2.45;;;;;;;;;;5004599;28;20413;-58
2023/04/20 03:23:50;;;;;;;7.07;1.55;;;;;;;;;;5004072;28;20073;-58
2023/04/20 03:26:17;;;;;;;4.63;1.70;;;;;;;;;;5003885;28;20042;-58
2023/04/20 03:28:43;;;;;;;4.93;1.67;;;;;;;;;;5003518;28;20046;-58
2023/04/20 03:31:09;;;;;;;5.10;1.90;;;;;;;;;;5004058;28;20510;-58
2023/04/20 03:33:35;;;;;;;7.68;2.17;;;;;;;;;;5004123;28;20491;-59
2023/04/20 03:36:02;;;;;;;4.35;1.60;;;;;;;;;;5004215;28;20046;-58
2023/04/20 03:38:28;;;;;;;4.85;1.55;;;;;;;;;;5003755;28;20650;-58
2023/04/20 03:40:54;;;;;;;3.45;1.42;;;;;;;;;;5003694;28;20108;-58
2023/04/20 03:43:20;;;;;;;6.30;1.80;;;;;;;;;;5004137;28;20045;-58
2023/04/20 03:45:46;;;;;;;3.65;1.70;;;;;;;;;;5003682;28;20048;-58
2023/04/20 03:48:12;;;;;;;4.70;1.92;;;;;;;;;;5004132;28;20056;-58
2023/04/20 03:50:38;;;;;;;3.58;1.33;;;;;;;;;;5003089;28;20041;-58
2023/04/20 03:53:04;;;;;;;5.05;2.10;;;;;;;;;;4986370;28;20085;-58
2023/04/20 03:55:30;;;;;;;4.28;1.42;;;;;;;;;;5003149;28;20121;-59
2023/04/20 03:57:57;;;;;;;4.95;1.55;;;;;;;;;;5003882;28;20359;-58
2023/04/20 04:00:23;;;;;;;3.47;1.85;;;;;;;;;;5003937;28;20558;-59
2023/04/20 04:02:49;;;;;;;5.30;1.60;;;;;;;;;;5003618;28;20181;-59
2023/04/20 04:05:15;;;;;;;3.72;1.45;;;;;;;;;;5004254;28;20425;-58
2023/04/20 04:07:41;;;;;;;6.35;2.03;;;;;;;;;;5003211;28;20065;-58
2023/04/20 04:10:08;;;;;;;5.18;1.70;;;;;;;;;;5003084;28;20058;-61
2023/04/20 04:12:35;;;;;;;7.22;1.92;;;;;;;;;;5003301;28;20511;-59
2023/04/20 04:15:01;;;;;;;6.15;1.98;;;;;;;;;;5004011;28;20050;-59
2023/04/20 04:17:27;;;;;;;5.32;1.70;;;;;;;;;;5015128;28;20521;-58
2023/04/20 04:19:53;;;;;;;4.70;1.67;;;;;;;;;;5006138;28;20113;-58
2023/04/20 04:22:19;;;;;;;4.50;1.90;;;;;;;;;;5003727;28;20042;-59
2023/04/20 04:24:45;;;;;;;4.88;1.73;;;;;;;;;;5003503;28;20076;-58
2023/04/20 04:27:14;;;;;;;6.53;1.38;;;;;;;;;;5003093;28;20038;-58
2023/04/20 04:29:40;;;;;;;3.60;1.60;;;;;;;;;;5003076;28;20117;-58
2023/04/20 04:32:08;;;;;;;5.40;1.77;;;;;;;;;;5003445;28;20052;-58
2023/04/20 04:34:34;;;;;;;4.15;1.75;;;;;;;;;;5003704;28;20610;-58
2023/04/20 04:37:00;;;;;;;7.28;2.28;;;;;;;;;;5003483;28;20041;-58
2023/04/20 04:39:27;;;;;;;6.53;1.80;;;;;;;;;;4986323;28;20045;-58
2023/04/20 04:41:53;;;;;;;8.73;2.03;;;;;;;;;;5002346;28;20038;-58
2023/04/20 04:44:20;;;;;;;6.65;2.33;;;;;;;;;;5003343;28;20718;-59
2023/04/20 04:46:46;;;;;;;7.90;2.40;;;;;;;;;;5003323;28;20495;-60
2023/04/20 04:49:12;;;;;;;6.95;2.45;;;;;;;;;;5011617;28;20037;-61
2023/04/20 04:51:39;;;;;;;6.32;2.40;;;;;;;;;;5020653;28;20111;-62
2023/04/20 04:54:05;;;;;;;5.35;1.70;;;;;;;;;;5018822;28;20080;-61
2023/04/20 04:56:31;;;;;;;4.75;2.10;;;;;;;;;;5015099;28;20077;-61
2023/04/20 04:58:57;;;;;;;4.50;1.73;;;;;;;;;;5014004;28;20122;-58
2023/04/20 05:01:23;;;;;;;5.53;2.05;;;;;;;;;;5019415;28;20129;-58
2023/04/20 05:03:50;;;;;;;8.07;1.90;;;;;;;;;;5015527;28;20487;-61
2023/04/20 05:06:16;;;;;;;5.30;1.88;;;;;;;;;;5013764;28;20042;-61
2023/04/20 05:08:42;;;;;;;4.63;1.80;;;;;;;;;;5010825;28;20063;-60
2023/04/20 05:11:08;;;;;;;6.75;1.65;;;;;;;;;;5014785;28;20049;-60
2023/04/20 05:13:34;;;;;;;9.05;2.20;;;;;;;;;;5019607;28;20048;-60
2023/04/20 05:16:00;;;;;;;4.78;1.88;;;;;;;;;;5010750;28;20041;-58
2023/04/20 05:18:27;;;;;;;5.00;1.85;;;;;;;;;;5021444;28;20436;-60
2023/04/20 05:20:53;;;;;;;6.22;2.00;;;;;;;;;;5012537;28;20458;-60
2023/04/20 05:23:19;;;;;;;7.30;1.75;;;;;;;;;;5019887;28;20531;-61
2023/04/20 05:25:45;;;;;;;9.23;2.45;;;;;;;;;;5021694;28;20038;-61
2023/04/20 05:28:11;;;;;;;9.88;2.22;;;;;;;;;;5024334;28;20057;-61
2023/04/20 05:30:37;;;;;;;19.98;8.15;;;;;;;;;;5017032;28;20053;-62
2023/04/20 05:33:04;;;;;;;11.30;5.18;;;;;;;;;;5020794;28;20049;-62
2023/04/20 05:35:30;;;;;;;5.18;2.08;;;;;;;;;;5021755;28;20056;-63
2023/04/20 05:37:59;;;;;;;10.70;3.47;;;;;;;;;;5020460;28;20045;-62
2023/04/20 05:40:25;;;;;;;8.90;3.50;;;;;;;;;;5023145;28;20068;-62
2023/04/20 05:42:52;;;;;;;6.55;1.88;;;;;;;;;;5022301;28;20067;-62
2023/04/20 05:45:18;;;;;;;7.38;1.92;;;;;;;;;;5022926;28;20042;-62
2023/04/20 05:48:00;;;;;;;6.00;1.95;;;;;;;;;;5024758;28;20048;-62
2023/04/20 05:50:27;;;;;;;8.98;3.58;;;;;;;;;;5026370;28;20053;-63
2023/04/20 05:52:53;;;;;;;5.53;2.45;;;;;;;;;;5024824;28;20045;-62
2023/04/20 05:55:19;;;;;;;8.43;2.38;;;;;;;;;;5007520;28;20508;-62
2023/04/20 05:57:46;;;;;;;7.18;2.30;;;;;;;;;;5024856;28;20500;-62
2023/04/20 06:00:14;;;;;;;7.97;2.47;;;;;;;;;;5007987;28;20033;-62
2023/04/20 06:02:40;;;;;;;5.40;2.05;;;;;;;;;;5024957;28;20052;-63
2023/04/20 06:05:09;;;;;;;4.78;2.30;;;;;;;;;;5025717;28;20068;-63
2023/04/20 06:07:35;;;;;;;3.65;1.75;;;;;;;;;;5019564;28;20053;-62
2023/04/20 06:10:02;;;;;;;6.63;2.08;;;;;;;;;;5012834;28;20037;-61
2023/04/20 06:12:29;;;;;;;6.70;2.47;;;;;;;;;;5018017;28;20102;-60
2023/04/20 06:14:57;;;;;;;3.28;1.52;;;;;;;;;;5015100;28;20543;-60
2023/04/20 06:17:23;;;;;;;5.50;1.90;;;;;;;;;;5023311;28;20046;-60
2023/04/20 06:19:49;;;;;;;5.72;2.28;;;;;;;;;;5008244;28;20046;-60
2023/04/20 06:22:15;;;;;;;5.57;2.00;;;;;;;;;;5004907;28;20034;-60
2023/04/20 06:24:42;;;;;;;6.22;2.17;;;;;;;;;;5005509;28;20116;-60
2023/04/20 06:27:08;;;;;;;4.00;1.90;;;;;;;;;;5004568;28;20033;-60
2023/04/20 06:29:35;;;;;;;5.28;2.38;;;;;;;;;;4988153;28;20594;-63
2023/04/20 06:32:01;;;;;;;4.78;2.00;;;;;;;;;;5005263;28;20050;-60
2023/04/20 06:34:27;;;;;;;4.93;2.80;;;;;;;;;;5005743;28;20123;-60
2023/04/20 06:36:53;;;;;;;10.82;2.35;;;;;;;;;;4987431;28;20077;-60
2023/04/20 06:39:19;;;;;;;4.50;2.30;;;;;;;;;;4988079;28;20053;-60
2023/04/20 06:41:45;;;;;;;7.25;2.15;;;;;;;;;;5003837;28;20440;-60
2023/04/20 06:44:12;;;;;;;12.35;2.58;;;;;;;;;;5005405;28;20049;-60
2023/04/20 06:46:38;;;;;;;5.28;2.40;;;;;;;;;;5004978;28;20049;-60
2023/04/20 06:49:04;;;;;;;5.13;2.35;;;;;;;;;;5005055;28;20040;-60
2023/04/20 06:51:31;;;;;;;4.07;2.00;;;;;;;;;;5005359;28;20050;-61
2023/04/20 06:53:58;;;;;;;4.45;2.10;;;;;;;;;;5005204;28;20550;-60
2023/04/20 06:56:24;;;;;;;5.13;2.03;;;;;;;;;;5004463;28;20447;-60
2023/04/20 06:58:50;;;;;;;5.00;2.05;;;;;;;;;;5004346;28;20073;-60
2023/04/20 07:01:16;;;;;;;5.38;2.63;;;;;;;;;;5004131;28;20377;-60
2023/04/20 07:03:42;;;;;;;6.75;2.40;;;;;;;;;;5004274;28;20056;-60
2023/04/20 07:06:10;;;;;;;6.70;2.63;;;;;;;;;;5004972;28;20045;-61
2023/04/20 07:08:36;;;;;;;4.70;2.30;;;;;;;;;;5004226;28;20045;-61
2023/04/20 07:11:02;;;;;;;10.40;3.17;;;;;;;;;;5003987;28;20049;-60
2023/04/20 07:13:31;;;;;;;4.57;2.45;;;;;;;;;;5004054;28;20038;-60
2023/04/20 07:15:57;;;;;;;6.75;2.40;;;;;;;;;;5004749;28;20038;-60
2023/04/20 07:18:23;;;;;;;5.38;2.53;;;;;;;;;;5017819;28;20038;-60
2023/04/20 07:20:49;;;;;;;6.63;2.63;;;;;;;;;;5023567;28;20556;-60
2023/04/20 07:23:15;;;;;;;7.05;2.42;;;;;;;;;;5014969;28;20038;-60
2023/04/20 07:25:42;;;;;;;10.52;3.42;;;;;;;;;;5003655;28;20729;-60
2023/04/20 07:28:08;;;;;;;8.20;3.20;;;;;;;;;;5004291;28;20052;-60
2023/04/20 07:30:34;;;;;;;12.07;3.63;;;;;;;;;;5004258;28;20459;-60
2023/04/20 07:33:00;;;;;;;6.68;3.30;;;;;;;;;;5004005;28;20041;-61
2023/04/20 07:35:26;;;;;;;6.78;2.30;;;;;;;;;;5004731;28;20141;-60
2023/04/20 07:37:52;;;;;;;11.70;3.70;;;;;;;;;;5003949;28;20054;-61
2023/04/20 07:40:19;;;;;;;7.47;3.17;;;;;;;;;;5002841;28;20498;-60
2023/04/20 07:42:45;;;;;;;8.00;3.17;;;;;;;;;;5004598;28;20430;-60
2023/04/20 07:45:12;;;;;;;7.25;2.90;;;;;;;;;;5004089;28;20037;-60
2023/04/20 07:47:38;;;;;;;7.80;3.15;;;;;;;;;;4986050;28;20129;-61
2023/04/20 07:50:05;;;;;;;7.53;3.03;;;;;;;;;;5004187;28;20065;-60
2023/04/20 07:52:31;;;;;;;7.47;2.80;;;;;;;;;;5004171;28;20056;-60
2023/04/20 07:54:58;;;;;;;8.57;3.15;;;;;;;;;;5003555;28;20053;-60
2023/04/20 07:57:25;;;;;;;7.35;2.78;;;;;;;;;;5004632;28;20129;-61
2023/04/20 07:59:51;;;;;;;7.90;3.33;;;;;;;;;;5003061;28;20049;-60
2023/04/20 08:02:17;;;;;;;9.45;5.68;;;;;;;;;;5004003;28;20041;-60
2023/04/20 08:04:43;;;;;;;5.55;3.47;;;;;;;;;;5003689;28;20081;-61
2023/04/20 08:07:10;;;;;;;5.70;2.83;;;;;;;;;;5004046;28;20042;-60
2023/04/20 08:09:36;;;;;;;6.47;3.10;;;;;;;;;;5003048;28;20088;-61
2023/04/20 08:12:02;;;;;;;5.05;2.70;;;;;;;;;;5003623;28;20050;-60
2023/04/20 08:14:28;;;;;;;10.65;3.33;;;;;;;;;;5004250;28;20053;-62
2023/04/20 08:16:55;;;;;;;11.35;3.40;;;;;;;;;;5010624;28;20607;-60
2023/04/20 08:19:21;;;;;;;6.68;3.28;;;;;;;;;;5010403;28;20547;-60
2023/04/20 08:21:47;;;;;;;7.18;3.35;;;;;;;;;;5003264;28;20057;-60
2023/04/20 08:24:13;;;;;;;8.88;2.97;;;;;;;;;;5005727;28;20042;-60
2023/04/20 08:26:39;;;;;;;10.13;3.20;;;;;;;;;;5006549;28;20042;-61
2023/04/20 08:29:06;;;;;;;6.47;3.17;;;;;;;;;;5007909;28;20089;-60
2023/04/20 08:31:32;;;;;;;5.47;2.63;;;;;;;;;;5007334;28;20049;-60
2023/04/20 08:33:58;;;;;;;8.65;3.30;;;;;;;;;;5008174;28;20038;-60
2023/04/20 08:36:26;;;;;;;8.65;3.88;;;;;;;;;;5007669;28;20402;-60
2023/04/20 08:38:54;;;;;;;5.93;3.10;;;;;;;;;;5006438;28;20108;-60
2023/04/20 08:41:21;;;;;;;10.88;3.50;;;;;;;;;;5006609;28;20044;-60
2023/04/20 08:43:48;;;;;;;7.72;3.50;;;;;;;;;;5007017;28;20046;-60
2023/04/20 08:46:15;;;;;;;9.45;3.30;;;;;;;;;;5007312;28;20094;-60
2023/04/20 08:48:41;;;;;;;6.20;3.08;;;;;;;;;;5007130;28;20049;-61
2023/04/20 08:51:07;;;;;;;9.85;3.60;;;;;;;;;;5007263;28;20042;-60
2023/04/20 08:53:33;;;;;;;7.60;3.03;;;;;;;;;;5007282;28;20142;-60
2023/04/20 08:56:00;;;;;;;6.90;3.30;;;;;;;;;;5006176;28;20042;-61
2023/04/20 08:58:30;;;;;;;9.88;3.38;;;;;;;;;;5006917;28;20529;-60
2023/04/20 09:00:56;;;;;;;7.22;3.13;;;;;;;;;;5007220;28;20042;-60
2023/04/20 09:03:34;;;;;;;14.20;3.83;;;;;;;;;;5007097;28;20045;-60
2023/04/20 09:06:01;;;;;;;13.45;3.25;;;;;;;;;;5006770;28;20177;-61
2023/04/20 09:08:38;;;;;;;9.90;4.05;;;;;;;;;;5007436;28;20061;-60
2023/04/20 09:11:04;;;;;;;9.95;3.53;;;;;;;;;;5005904;28;20486;-60
2023/04/20 09:13:30;;;;;;;9.40;3.60;;;;;;;;;;5006358;28;20111;-60
2023/04/20 09:15:57;;;;;;;6.90;3.60;;;;;;;;;;5006923;28;20099;-60
2023/04/20 09:18:23;;;;;;;6.75;4.28;;;;;;;;;;5020423;28;20491;-60
2023/04/20 09:20:50;;;;;;;9.40;3.95;;;;;;;;;;5006485;28;20076;-60
2023/04/20 09:23:17;;;;;;;9.00;3.88;;;;;;;;;;5006295;28;20534;-60
2023/04/20 09:25:45;;;;;;;11.63;4.72;;;;;;;;;;5005649;28;20056;-60
2023/04/20 09:28:12;;;;;;;10.30;4.22;;;;;;;;;;5006502;28;20056;-60
2023/04/20 09:30:40;;;;;;;10.63;4.38;;;;;;;;;;5005879;28;20045;-61
2023/04/20 09:33:07;;;;;;;6.88;4.25;;;;;;;;;;5006459;28;20050;-60
2023/04/20 09:35:33;;;;;;;8.07;3.80;;;;;;;;;;5005699;28;20042;-60
2023/04/20 09:38:00;;;;;;;8.35;4.20;;;;;;;;;;5006650;28;20042;-60
2023/04/20 09:40:26;;;;;;;12.13;3.97;;;;;;;;;;4988393;28;20450;-60
2023/04/20 09:42:53;;;;;;;8.55;4.45;;;;;;;;;;5006138;28;20072;-60
2023/04/20 09:45:20;;;;;;;8.60;4.00;;;;;;;;;;5005958;28;20042;-60
2023/04/20 09:47:48;;;;;;;11.63;4.30;;;;;;;;;;5005600;28;20046;-60
2023/04/20 09:50:15;;;;;;;10.55;4.53;;;;;;;;;;5005709;28;20834;-60
2023/04/20 09:52:42;;;;;;;7.90;4.18;;;;;;;;;;5005594;28;20496;-60
2023/04/20 09:55:09;;;;;;;9.27;4.20;;;;;;;;;;5005426;28;20042;-60
2023/04/20 09:57:36;;;;;;;7.15;5.00;;;;;;;;;;5005912;28;20046;-61
2023/04/20 10:00:05;;;;;;;11.43;4.50;;;;;;;;;;5005997;28;20050;-60
2023/04/20 10:02:32;;;;;;;9.55;4.65;;;;;;;;;;5006011;28;20480;-61
2023/04/20 10:05:00;;;;;;;9.05;4.13;;;;;;;;;;5005936;28;20153;-60
2023/04/20 10:07:27;;;;;;;10.35;4.88;;;;;;;;;;4988283;28;20093;-60
2023/04/20 10:10:05;;;;;;;10.27;4.93;;;;;;;;;;5004960;28;20136;-60
2023/04/20 10:12:31;;;;;;;10.65;4.53;;;;;;;;;;5005161;28;20527;-60
2023/04/20 10:14:59;;;;;;;8.73;3.70;;;;;;;;;;5005877;28;20479;-60
2023/04/20 10:17:29;;;;;;;14.95;4.97;;;;;;;;;;5016846;28;20561;-60
2023/04/20 10:19:55;;;;;;;9.55;4.95;;;;;;;;;;5007687;28;20041;-60
2023/04/20 10:22:32;;;;;;;8.13;4.28;;;;;;;;;;5005362;28;20046;-60
2023/04/20 10:24:59;;;;;;;10.15;5.07;;;;;;;;;;5004618;28;20109;-60
2023/04/20 10:27:25;;;;;;;7.68;4.38;;;;;;;;;;5005823;28;20046;-60
2023/04/20 10:29:51;;;;;;;9.45;4.22;;;;;;;;;;5004807;28;20406;-60
2023/04/20 10:32:22;;;;;;;11.23;4.50;;;;;;;;;;5005320;28;20064;-60
2023/04/20 10:34:48;;;;;;;8.52;4.70;;;;;;;;;;5005094;28;20049;-60
2023/04/20 10:37:14;;;;;;;9.23;4.90;;;;;;;;;;5005153;28;20108;-60
2023/04/20 10:39:44;;;;;;;10.35;4.53;;;;;;;;;;5004291;28;20038;-61
2023/04/20 10:42:10;;;;;;;11.80;6.45;;;;;;;;;;5005196;28;20045;-60
2023/04/20 10:44:46;;;;;;;9.85;5.80;;;;;;;;;;5004484;28;20038;-60
2023/04/20 10:47:13;;;;;;;10.93;5.70;;;;;;;;;;5005914;28;20531;-60
2023/04/20 10:49:40;;;;;;;22.70;12.30;;;;;;;;;;5008397;28;20398;-61
2023/04/20 10:52:06;;;;;;;21.33;14.88;;;;;;;;;;5018419;28;20675;-60
2023/04/20 10:54:37;;;;;;;11.25;5.90;;;;;;;;;;5013952;28;20488;-60
2023/04/20 10:57:05;;;;;;;8.55;5.25;;;;;;;;;;5015648;28;20079;-61
2023/04/20 10:59:33;;;;;;;12.57;7.57;;;;;;;;;;5013793;28;20042;-60
2023/04/20 11:02:00;;;;;;;10.63;6.85;;;;;;;;;;5019094;28;20546;-60
2023/04/20 11:04:31;;;;;;;13.77;7.88;;;;;;;;;;5017162;28;20129;-61
2023/04/20 11:07:05;;;;;;;10.65;7.03;;;;;;;;;;5012292;28;20052;-60
2023/04/20 11:09:33;;;;;;;15.70;8.65;;;;;;;;;;5012538;28;20037;-61
2023/04/20 11:12:00;;;;;;;13.98;7.28;;;;;;;;;;5020535;28;20049;-63
2023/04/20 11:14:27;;;;;;;12.45;6.75;;;;;;;;;;5019673;28;20725;-61
2023/04/20 11:16:53;;;;;;;13.20;7.07;;;;;;;;;;5021624;28;20045;-60
2023/04/20 11:19:25;;;;;;;14.13;7.85;;;;;;;;;;5011392;28;20049;-61
2023/04/20 11:21:51;;;;;;;16.65;8.20;;;;;;;;;;5017076;28;20038;-60
2023/04/20 11:24:19;;;;;;;13.60;8.38;;;;;;;;;;5020235;28;20051;-60
2023/04/20 11:26:47;;;;;;;12.07;7.23;;;;;;;;;;5020468;28;20542;-61
2023/04/20 11:29:13;;;;;;;11.60;7.05;;;;;;;;;;5023126;28;20079;-61
2023/04/20 11:31:39;;;;;;;14.50;7.72;;;;;;;;;;5020574;28;20038;-61
2023/04/20 11:34:07;;;;;;;17.48;8.40;;;;;;;;;;5021823;28;20037;-61
2023/04/20 11:36:38;;;;;;;14.02;8.95;;;;;;;;;;5021079;28;20045;-61
2023/04/20 11:39:08;;;;;;;11.52;7.75;;;;;;;;;;5019226;28;20064;-59
2023/04/20 11:41:37;;;;;;;13.38;7.50;;;;;;;;;;5016495;28;20055;-58
2023/04/20 11:44:05;;;;;;;14.40;9.73;;;;;;;;;;5017461;28;20045;-59
2023/04/20 11:46:34;;;;;;;13.63;9.00;;;;;;;;;;5018872;28;20513;-58
2023/04/20 11:49:01;;;;;;;;;;;;;;;;;;5022808;28;20781;-60
2023/04/20 11:51:27;;;;;;;12.65;7.05;;;;;;;;;;5022317;28;19925;-58
2023/04/20 11:53:53;;;;;;;13.82;8.40;;;;;;;;;;5021454;28;20033;-61
2023/04/20 11:56:19;;;;;;;20.85;11.15;;;;;;;;;;5022920;28;20060;-58
2023/04/20 11:58:45;;;;;;;12.30;6.63;;;;;;;;;;5024667;28;20067;-58
2023/04/20 12:01:12;;;;;;;13.20;7.13;;;;;;;;;;5028401;28;20090;-59
2023/04/20 12:03:38;;;;;;;14.23;7.07;;;;;;;;;;5029057;28;20045;-58
2023/04/20 12:06:04;;;;;;;12.35;7.07;;;;;;;;;;5010648;28;20049;-59
2023/04/20 12:08:30;;;;;;;11.52;6.50;;;;;;;;;;5028961;28;20061;-59
2023/04/20 12:10:56;;;;;;;12.98;7.00;;;;;;;;;;5027518;28;20414;-58
2023/04/20 12:13:22;;;;;;;15.20;6.85;;;;;;;;;;5029125;28;20523;-58
2023/04/20 12:15:48;;;;;;;13.07;6.63;;;;;;;;;;5027945;28;20686;-59
2023/04/20 12:18:15;;;;;;;16.10;7.75;;;;;;;;;;5025535;28;20073;-59
2023/04/20 12:20:41;;;;;;;12.18;6.90;;;;;;;;;;5009376;28;20432;-60
2023/04/20 12:23:07;;;;;;;11.63;6.78;;;;;;;;;;5009761;28;20053;-59
2023/04/20 12:25:33;;;;;;;13.95;9.30;;;;;;;;;;5008815;28;20049;-60
2023/04/20 12:28:04;;;;;;;12.85;8.27;;;;;;;;;;5009983;28;20129;-59
2023/04/20 12:30:30;;;;;;;12.02;8.15;;;;;;;;;;5022787;28;20069;-60
2023/04/20 12:32:56;;;;;;;11.25;7.45;;;;;;;;;;5014286;28;20099;-60
2023/04/20 12:35:22;;;;;;;16.02;8.88;;;;;;;;;;5013731;28;20095;-60
2023/04/20 12:37:49;;;;;;;13.60;8.05;;;;;;;;;;5026141;28;20331;-61
2023/04/20 12:40:15;;;;;;;12.85;6.55;;;;;;;;;;5007801;28;20053;-61
2023/04/20 12:42:41;;;;;;;12.68;6.60;;;;;;;;;;5014650;28;20444;-61
2023/04/20 12:45:08;;;;;;;13.63;8.05;;;;;;;;;;5019083;28;20037;-61
2023/04/20 12:47:34;;;;;;;18.17;11.13;;;;;;;;;;5028093;28;20079;-61
2023/04/20 12:50:01;;;;;;;18.77;7.68;;;;;;;;;;5024081;28;20046;-61
2023/04/20 12:52:27;;;;;;;12.20;7.03;;;;;;;;;;5018878;28;20053;-61
2023/04/20 12:54:54;;;;;;;10.68;6.78;;;;;;;;;;5027446;28;20102;-60
2023/04/20 12:57:20;;;;;;;12.15;7.28;;;;;;;;;;5022846;28;20042;-61
2023/04/20 12:59:49;;;;;;;10.38;6.93;;;;;;;;;;5028540;28;20040;-61
2023/04/20 13:02:15;;;;;;;12.27;7.68;;;;;;;;;;5020385;28;20130;-60
2023/04/20 13:04:41;;;;;;;15.07;7.45;;;;;;;;;;5027114;28;20037;-60
2023/04/20 13:07:08;;;;;;;12.20;7.10;;;;;;;;;;5023724;28;20045;-60
2023/04/20 13:09:34;;;;;;;11.35;6.82;;;;;;;;;;5024963;28;20058;-61
2023/04/20 13:12:01;;;;;;;12.23;7.70;;;;;;;;;;5024683;28;20042;-61
2023/04/20 13:14:27;;;;;;;20.33;15.45;;;;;;;;;;5023798;28;20049;-60
2023/04/20 13:16:54;;;;;;;11.60;7.65;;;;;;;;;;5024639;28;20083;-61
2023/04/20 13:19:20;;;;;;;16.67;8.93;;;;;;;;;;5022127;28;20049;-60
2023/04/20 13:21:46;;;;;;;29.75;14.50;;;;;;;;;;5016702;28;20038;-60
2023/04/20 13:24:12;;;;;;;16.30;8.27;;;;;;;;;;5003367;28;20037;-60
2023/04/20 13:26:38;;;;;;;15.60;9.18;;;;;;;;;;5017656;28;20404;-60
2023/04/20 13:29:05;;;;;;;13.02;7.80;;;;;;;;;;5006623;28;20057;-60
2023/04/20 13:31:31;;;;;;;17.75;11.07;;;;;;;;;;5007095;28;20081;-61
2023/04/20 13:33:57;;;;;;;15.68;7.22;;;;;;;;;;5007052;28;20038;-60
2023/04/20 13:36:23;;;;;;;13.18;7.35;;;;;;;;;;5006384;28;20415;-61
2023/04/20 13:38:52;;;;;;;11.95;7.45;;;;;;;;;;5019070;28;20095;-60
2023/04/20 13:41:18;;;;;;;18.73;9.32;;;;;;;;;;5006509;28;20089;-60
2023/04/20 13:43:44;;;;;;;12.93;7.45;;;;;;;;;;5007287;28;20038;-60
2023/04/20 13:46:11;;;;;;;14.45;8.35;;;;;;;;;;5018805;28;20052;-60
2023/04/20 13:48:37;;;;;;;16.17;7.68;;;;;;;;;;5018232;28;20068;-60
2023/04/20 13:51:03;;;;;;;11.50;7.25;;;;;;;;;;5016973;28;20417;-60
2023/04/20 13:53:30;;;;;;;12.98;7.50;;;;;;;;;;5020765;28;20097;-60
2023/04/20 13:55:57;;;;;;;13.48;6.93;;;;;;;;;;5019647;28;20128;-60
2023/04/20 13:58:23;;;;;;;11.85;6.88;;;;;;;;;;5015676;28;20618;-60
2023/04/20 14:00:49;;;;;;;11.77;7.15;;;;;;;;;;5022757;28;20076;-60
2023/04/20 14:03:17;;;;;;;22.23;17.23;;;;;;;;;;5022606;28;20064;-60
2023/04/20 14:05:44;;;;;;;25.70;22.92;;;;;;;;;;5021728;28;20095;-60
2023/04/20 14:08:12;;;;;;;16.10;10.10;;;;;;;;;;5018717;28;20053;-60
2023/04/20 14:10:39;;;;;;;12.70;9.05;;;;;;;;;;5020259;28;20814;-61
2023/04/20 14:13:05;;;;;;;10.38;6.43;;;;;;;;;;5019977;28;20814;-61
2023/04/20 14:15:32;;;;;;;9.35;6.57;;;;;;;;;;5007279;28;20045;-61
2023/04/20 14:17:59;;;;;;;16.92;8.73;;;;;;;;;;5023844;28;20056;-60
2023/04/20 14:20:25;;;;;;;17.55;6.40;;;;;;;;;;5006017;28;20069;-61
2023/04/20 14:22:51;;;;;;;11.85;7.10;;;;;;;;;;5004594;28;20056;-60
2023/04/20 14:25:18;;;;;;;13.38;10.25;;;;;;;;;;5004524;28;20057;-60
2023/04/20 14:27:45;;;;;;;12.68;7.70;;;;;;;;;;5023367;28;20049;-60
2023/04/20 14:30:11;;;;;;;9.40;5.88;;;;;;;;;;5008276;28;20092;-60
2023/04/20 14:32:37;;;;;;;10.05;5.93;;;;;;;;;;5005906;28;20636;-61
2023/04/20 14:35:04;;;;;;;11.32;7.25;;;;;;;;;;5013001;28;20156;-61